Time;durP1;ratioP1;P1;durP2;ratioP2;P2;SDS_P1;SDS_P2;PMS_P1;PMS_P2;Temp;Humidity;BMP_temperature;BMP_pressure;BME280_temperature;BME280_humidity;BME280_pressure;Samples;Min_cycle;Max_cycle;Signal;HPM_P1;HPM_P2
2022/11/04 00:00:09;;;;;;;7.50;4.70;;;;;;;;;;108342;1270;22684;-30
2022/11/04 00:03:01;;;;;;;6.50;4.40;;;;;;;;;;108350;1268;25440;-30
2022/11/04 00:05:34;;;;;;;7.20;4.20;;;;;;;;;;108306;1261;23914;-30
2022/11/04 00:08:26;;;;;;;7.10;4.40;;;;;;;;;;108337;1271;25402;-30
2022/11/04 00:13:50;;;;;;;7.30;4.10;;;;;;;;;;108359;1269;22577;-30
2022/11/04 00:19:11;;;;;;;6.80;4.30;;;;;;;;;;108377;1268;22551;-30
2022/11/04 00:30:16;;;;;;;7.60;3.90;;;;;;;;;;108343;1266;22638;-30
2022/11/04 00:35:38;;;;;;;6.20;3.80;;;;;;;;;;108357;1261;25382;-30
2022/11/04 00:38:12;;;;;;;6.60;4.10;;;;;;;;;;108369;1268;22559;-30
2022/11/04 00:40:45;;;;;;;6.70;3.90;;;;;;;;;;108393;1268;23717;-30
2022/11/04 00:43:16;;;;;;;7.10;4.20;;;;;;;;;;108390;1266;22546;-30
2022/11/04 00:45:48;;;;;;;6.50;4.00;;;;;;;;;;108379;1265;22543;-30
2022/11/04 00:48:20;;;;;;;7.40;4.20;;;;;;;;;;108337;1265;22564;-30
2022/11/04 00:50:52;;;;;;;6.30;3.80;;;;;;;;;;108375;1268;22651;-30
2022/11/04 00:53:25;;;;;;;6.70;4.30;;;;;;;;;;108385;1268;22737;-30
2022/11/04 00:56:01;;;;;;;6.50;4.00;;;;;;;;;;108380;1268;22544;-30
2022/11/04 00:58:33;;;;;;;7.10;3.90;;;;;;;;;;108314;1271;22554;-30
2022/11/04 01:01:11;;;;;;;6.40;4.00;;;;;;;;;;108320;1262;22552;-30
2022/11/04 01:03:43;;;;;;;7.20;4.30;;;;;;;;;;108361;1269;22535;-30
2022/11/04 01:06:15;;;;;;;7.10;4.00;;;;;;;;;;108341;1268;25236;-29
2022/11/04 01:08:48;;;;;;;8.20;3.80;;;;;;;;;;108361;1267;22538;-30
2022/11/04 01:11:20;;;;;;;6.60;4.10;;;;;;;;;;108380;1268;22616;-30
2022/11/04 01:13:54;;;;;;;7.20;4.20;;;;;;;;;;108383;1269;22541;-30
2022/11/04 01:16:29;;;;;;;7.90;3.90;;;;;;;;;;108369;1267;25391;-30
2022/11/04 01:19:01;;;;;;;6.90;3.70;;;;;;;;;;108437;1269;25163;-30
2022/11/04 01:21:33;;;;;;;6.60;3.90;;;;;;;;;;108365;1271;22508;-30
2022/11/04 01:24:06;;;;;;;6.30;3.70;;;;;;;;;;108335;1268;25344;-30
2022/11/04 01:26:39;;;;;;;7.90;3.80;;;;;;;;;;108402;1271;22538;-30
2022/11/04 01:29:11;;;;;;;5.90;3.50;;;;;;;;;;108139;1268;294469;-30
2022/11/04 01:31:43;;;;;;;6.30;3.90;;;;;;;;;;108414;1267;22547;-30
2022/11/04 01:34:15;;;;;;;6.30;3.60;;;;;;;;;;108412;1268;23027;-30
2022/11/04 01:36:47;;;;;;;6.10;3.60;;;;;;;;;;108387;1268;22680;-30
2022/11/04 01:39:19;;;;;;;6.40;3.70;;;;;;;;;;108326;1268;22628;-30
2022/11/04 01:41:51;;;;;;;6.00;3.90;;;;;;;;;;108377;1261;22555;-30
2022/11/04 01:45:04;;;;;;;6.70;3.80;;;;;;;;;;108346;1268;22708;-30
2022/11/04 01:47:42;;;;;;;6.20;3.70;;;;;;;;;;108325;1268;22547;-30
2022/11/04 01:50:21;;;;;;;6.40;3.80;;;;;;;;;;108380;1267;23963;-30
2022/11/04 01:52:58;;;;;;;6.10;3.60;;;;;;;;;;108413;1268;22545;-30
2022/11/04 01:55:34;;;;;;;6.90;3.50;;;;;;;;;;108366;1268;22552;-30
2022/11/04 01:58:11;;;;;;;6.20;3.80;;;;;;;;;;108328;1268;22570;-30
2022/11/04 02:00:44;;;;;;;6.10;3.60;;;;;;;;;;108366;1268;22563;-30
2022/11/04 02:03:23;;;;;;;5.90;3.80;;;;;;;;;;108327;1268;23832;-30
2022/11/04 02:05:57;;;;;;;6.10;4.00;;;;;;;;;;108382;1261;25342;-30
2022/11/04 02:08:31;;;;;;;6.50;3.70;;;;;;;;;;108315;1267;22550;-30
2022/11/04 02:11:05;;;;;;;6.20;3.60;;;;;;;;;;108383;1267;22523;-30
2022/11/04 02:13:38;;;;;;;6.50;3.90;;;;;;;;;;108382;1267;22694;-30
2022/11/04 02:16:21;;;;;;;6.50;4.00;;;;;;;;;;108393;1267;22562;-30
2022/11/04 02:19:05;;;;;;;6.60;3.60;;;;;;;;;;108344;1268;22616;-30
2022/11/04 02:22:10;;;;;;;6.20;3.40;;;;;;;;;;108345;1267;22568;-30
2022/11/04 02:25:03;;;;;;;6.90;3.80;;;;;;;;;;108351;1268;22553;-29
2022/11/04 02:27:50;;;;;;;5.60;3.50;;;;;;;;;;108374;1262;22586;-30
2022/11/04 02:30:24;;;;;;;6.40;3.50;;;;;;;;;;108353;1261;22932;-30
2022/11/04 02:33:08;;;;;;;;;;;;;;;;;;108393;1268;22544;-30
2022/11/04 02:35:49;;;;;;;;;;;;;;;;;;108393;1262;22748;-30
2022/11/04 02:38:35;;;;;;;5.80;3.80;;;;;;;;;;108364;1266;25953;-30
2022/11/04 02:41:17;;;;;;;6.80;3.80;;;;;;;;;;108379;1267;25240;-30
2022/11/04 02:44:05;;;;;;;5.70;3.40;;;;;;;;;;108371;1268;22600;-30
2022/11/04 02:46:43;;;;;;;6.60;3.60;;;;;;;;;;108362;1268;22597;-30
2022/11/04 02:49:19;;;;;;;6.40;3.40;;;;;;;;;;108303;1268;22551;-30
2022/11/04 02:51:55;;;;;;;6.90;3.80;;;;;;;;;;108394;1268;23841;-30
2022/11/04 02:54:33;;;;;;;5.90;3.60;;;;;;;;;;108397;1267;23890;-30
2022/11/04 02:57:11;;;;;;;5.90;3.80;;;;;;;;;;108400;1268;22544;-30
2022/11/04 02:59:48;;;;;;;5.90;3.70;;;;;;;;;;108343;1268;22547;-30
2022/11/04 03:02:30;;;;;;;6.60;3.50;;;;;;;;;;108385;1266;22540;-30
2022/11/04 03:05:04;;;;;;;5.60;3.30;;;;;;;;;;108340;1268;22539;-30
2022/11/04 03:07:41;;;;;;;6.00;3.60;;;;;;;;;;108342;1268;22506;-30
2022/11/04 03:10:19;;;;;;;6.00;3.90;;;;;;;;;;108323;1268;23821;-30
2022/11/04 03:12:57;;;;;;;6.50;3.50;;;;;;;;;;108410;1268;22582;-30
2022/11/04 03:15:33;;;;;;;6.00;3.50;;;;;;;;;;108356;1267;23920;-30
2022/11/04 03:18:18;;;;;;;6.10;3.50;;;;;;;;;;108402;1268;22842;-29
2022/11/04 03:20:52;;;;;;;5.80;3.20;;;;;;;;;;108362;1268;22549;-30
2022/11/04 03:23:24;;;;;;;6.10;4.00;;;;;;;;;;108345;1265;22610;-30
2022/11/04 03:26:07;;;;;;;6.40;3.80;;;;;;;;;;108357;1268;22546;-29
2022/11/04 03:28:50;;;;;;;5.40;3.50;;;;;;;;;;108364;1268;23822;-30
2022/11/04 03:31:32;;;;;;;6.50;3.60;;;;;;;;;;108331;1269;22530;-30
2022/11/04 03:34:04;;;;;;;6.40;3.50;;;;;;;;;;108401;1262;22576;-30
2022/11/04 03:36:36;;;;;;;5.80;3.50;;;;;;;;;;108398;1268;22544;-30
2022/11/04 03:39:09;;;;;;;6.40;3.60;;;;;;;;;;108396;1268;22649;-29
2022/11/04 03:41:48;;;;;;;6.20;3.30;;;;;;;;;;108301;1267;22553;-30
2022/11/04 03:44:20;;;;;;;6.20;3.70;;;;;;;;;;108332;1268;23872;-30
2022/11/04 03:46:53;;;;;;;6.10;3.10;;;;;;;;;;108320;1267;22501;-29
2022/11/04 03:49:27;;;;;;;6.30;3.30;;;;;;;;;;108325;1269;22544;-29
2022/11/04 03:52:00;;;;;;;5.10;3.00;;;;;;;;;;108362;1268;22552;-29
2022/11/04 03:54:35;;;;;;;5.60;3.20;;;;;;;;;;108397;1268;22546;-30
2022/11/04 03:57:39;;;;;;;6.00;3.10;;;;;;;;;;108417;1267;22543;-29
2022/11/04 04:00:15;;;;;;;6.20;3.40;;;;;;;;;;108290;1268;22534;-30
2022/11/04 04:03:04;;;;;;;5.40;3.30;;;;;;;;;;108343;1261;22545;-30
2022/11/04 04:05:46;;;;;;;6.40;3.30;;;;;;;;;;108362;1269;22760;-30
2022/11/04 04:08:30;;;;;;;5.90;3.40;;;;;;;;;;108376;1269;22564;-30
2022/11/04 04:11:13;;;;;;;5.40;3.30;;;;;;;;;;108346;1268;22533;-30
2022/11/04 04:13:52;;;;;;;5.10;3.10;;;;;;;;;;108360;1262;22538;-30
2022/11/04 04:16:32;;;;;;;5.80;3.40;;;;;;;;;;108371;1268;22587;-30
2022/11/04 04:19:08;;;;;;;5.40;3.00;;;;;;;;;;108402;1267;22543;-30
2022/11/04 04:21:46;;;;;;;6.80;3.20;;;;;;;;;;108318;1267;22564;-30
2022/11/04 04:27:32;;;;;;;5.80;3.20;;;;;;;;;;108336;1262;23804;-30
2022/11/04 04:30:11;;;;;;;6.20;3.30;;;;;;;;;;108362;1267;22607;-30
2022/11/04 04:32:46;;;;;;;6.00;3.30;;;;;;;;;;108347;1268;25400;-30
2022/11/04 04:47:04;;;;;;;4.80;3.10;;;;;;;;;;108353;1267;22627;-30
2022/11/04 04:49:36;;;;;;;5.50;3.20;;;;;;;;;;108330;1261;22530;-29
2022/11/04 04:52:10;;;;;;;6.00;3.50;;;;;;;;;;108294;1265;22588;-30
2022/11/04 04:54:43;;;;;;;4.70;2.80;;;;;;;;;;108369;1265;22567;-30
2022/11/04 04:57:15;;;;;;;5.50;3.10;;;;;;;;;;108377;1267;22550;-30
2022/11/04 04:59:47;;;;;;;5.00;3.00;;;;;;;;;;108403;1268;25247;-30
2022/11/04 05:02:19;;;;;;;6.30;3.20;;;;;;;;;;108362;1268;22584;-30
2022/11/04 05:04:51;;;;;;;6.30;3.10;;;;;;;;;;108355;1269;22547;-30
2022/11/04 05:07:24;;;;;;;6.10;3.30;;;;;;;;;;108329;1268;22547;-30
2022/11/04 05:09:56;;;;;;;6.40;3.30;;;;;;;;;;108351;1268;22629;-30
2022/11/04 05:13:24;;;;;;;5.40;3.00;;;;;;;;;;108335;1264;25380;-29
2022/11/04 05:15:21;;;;;;;4.90;2.80;;;;;;;;;;108390;1268;23837;-30
2022/11/04 05:17:59;;;;;;;5.10;3.00;;;;;;;;;;108391;1268;22542;-30
2022/11/04 05:20:33;;;;;;;5.50;3.30;;;;;;;;;;108390;1268;22545;-30
2022/11/04 05:23:10;;;;;;;5.00;2.80;;;;;;;;;;108318;1262;22549;-30
2022/11/04 05:25:43;;;;;;;6.00;3.10;;;;;;;;;;108356;1268;22546;-30
2022/11/04 05:28:15;;;;;;;6.50;3.30;;;;;;;;;;108361;1267;23897;-30
2022/11/04 05:30:47;;;;;;;5.60;3.20;;;;;;;;;;108387;1265;23807;-30
2022/11/04 05:33:19;;;;;;;5.80;3.20;;;;;;;;;;108347;1268;22557;-30
2022/11/04 05:35:52;;;;;;;5.80;3.30;;;;;;;;;;108383;1268;22546;-29
2022/11/04 05:38:24;;;;;;;6.40;3.40;;;;;;;;;;108402;1268;22547;-30
2022/11/04 05:40:59;;;;;;;5.70;3.20;;;;;;;;;;108410;1268;22585;-30
2022/11/04 05:43:31;;;;;;;5.30;3.00;;;;;;;;;;108371;1265;22551;-29
2022/11/04 05:46:03;;;;;;;6.00;3.00;;;;;;;;;;108392;1261;23896;-30
2022/11/04 05:48:35;;;;;;;6.80;3.30;;;;;;;;;;108362;1268;22570;-30
2022/11/04 05:51:08;;;;;;;5.00;2.90;;;;;;;;;;108344;1261;22488;-30
2022/11/04 05:53:38;;;;;;;;;;;;;;;;;;108347;1268;22530;-30
2022/11/04 05:56:11;;;;;;;5.30;3.10;;;;;;;;;;108401;1268;22561;-29
2022/11/04 05:58:43;;;;;;;5.60;3.00;;;;;;;;;;108394;1267;24191;-30
2022/11/04 06:01:25;;;;;;;6.10;3.50;;;;;;;;;;108409;1267;22537;-30
2022/11/04 06:03:59;;;;;;;6.00;3.30;;;;;;;;;;108337;1268;22670;-30
2022/11/04 06:06:34;;;;;;;5.80;3.30;;;;;;;;;;108349;1267;22655;-30
2022/11/04 06:09:06;;;;;;;5.90;3.40;;;;;;;;;;108360;1268;22538;-30
2022/11/04 06:11:40;;;;;;;5.90;3.10;;;;;;;;;;108356;1268;22536;-30
2022/11/04 06:14:12;;;;;;;5.30;2.90;;;;;;;;;;108358;1265;24039;-30
2022/11/04 06:16:44;;;;;;;5.20;2.90;;;;;;;;;;108402;1268;22525;-30
2022/11/04 06:19:16;;;;;;;6.50;3.10;;;;;;;;;;108385;1267;24220;-30
2022/11/04 06:21:48;;;;;;;5.70;3.00;;;;;;;;;;108389;1260;22875;-30
2022/11/04 06:24:20;;;;;;;5.80;3.40;;;;;;;;;;108347;1267;22540;-30
2022/11/04 06:26:52;;;;;;;5.90;3.50;;;;;;;;;;108352;1268;22493;-30
2022/11/04 06:29:24;;;;;;;5.50;3.00;;;;;;;;;;108353;1268;23899;-30
2022/11/04 06:31:56;;;;;;;6.10;3.30;;;;;;;;;;108354;1267;23830;-30
2022/11/04 06:34:28;;;;;;;5.40;3.30;;;;;;;;;;108353;1267;22561;-30
2022/11/04 06:37:00;;;;;;;5.80;3.30;;;;;;;;;;108412;1268;22502;-30
2022/11/04 06:39:32;;;;;;;5.80;3.20;;;;;;;;;;108430;1268;22542;-30
2022/11/04 06:42:05;;;;;;;5.30;3.00;;;;;;;;;;108389;1262;22606;-30
2022/11/04 06:44:39;;;;;;;6.40;3.30;;;;;;;;;;108324;1267;26073;-30
2022/11/04 06:47:11;;;;;;;6.60;3.00;;;;;;;;;;108362;1268;22550;-30
2022/11/04 06:49:43;;;;;;;6.40;3.20;;;;;;;;;;108335;1261;25415;-30
2022/11/04 06:52:17;;;;;;;5.80;3.20;;;;;;;;;;108340;1268;23808;-30
2022/11/04 06:54:50;;;;;;;5.30;3.00;;;;;;;;;;108353;1268;25324;-30
2022/11/04 06:57:21;;;;;;;6.10;3.30;;;;;;;;;;108378;1268;25948;-30
2022/11/04 06:59:54;;;;;;;5.20;3.00;;;;;;;;;;108412;1268;23916;-30
2022/11/04 07:02:27;;;;;;;6.90;3.30;;;;;;;;;;108416;1266;22543;-30
2022/11/04 07:04:59;;;;;;;6.10;3.20;;;;;;;;;;108328;1268;22549;-30
2022/11/04 07:07:34;;;;;;;5.90;3.40;;;;;;;;;;108356;1268;23922;-30
2022/11/04 07:10:09;;;;;;;6.00;3.40;;;;;;;;;;108372;1265;22554;-30
2022/11/04 07:12:41;;;;;;;5.70;3.20;;;;;;;;;;108385;1267;22653;-30
2022/11/04 07:15:14;;;;;;;6.00;3.50;;;;;;;;;;108334;1271;22555;-30
2022/11/04 07:17:47;;;;;;;6.80;3.50;;;;;;;;;;108409;1270;22676;-30
2022/11/04 07:20:19;;;;;;;6.80;3.80;;;;;;;;;;108356;1269;22524;-30
2022/11/04 07:22:52;;;;;;;6.40;3.30;;;;;;;;;;108405;1268;22563;-30
2022/11/04 07:25:24;;;;;;;6.60;3.70;;;;;;;;;;108320;1267;22605;-30
2022/11/04 07:27:57;;;;;;;6.30;3.50;;;;;;;;;;108348;1267;22771;-30
2022/11/04 07:30:29;;;;;;;7.20;3.80;;;;;;;;;;108368;1268;24641;-30
2022/11/04 07:33:01;;;;;;;6.10;3.50;;;;;;;;;;108327;1267;22645;-30
2022/11/04 07:35:33;;;;;;;6.00;3.50;;;;;;;;;;108303;1268;25939;-30
2022/11/04 07:38:06;;;;;;;6.20;3.60;;;;;;;;;;108331;1264;24199;-30
2022/11/04 07:40:38;;;;;;;7.90;3.90;;;;;;;;;;108304;1268;22543;-30
2022/11/04 07:43:10;;;;;;;6.90;3.60;;;;;;;;;;108290;1268;22584;-30
2022/11/04 07:45:42;;;;;;;6.20;3.50;;;;;;;;;;108265;1261;22728;-30
2022/11/04 07:48:14;;;;;;;6.70;3.90;;;;;;;;;;108280;1265;22532;-30
2022/11/04 07:50:46;;;;;;;7.70;4.10;;;;;;;;;;108272;1269;22560;-30
2022/11/04 07:53:21;;;;;;;7.50;3.80;;;;;;;;;;108212;1269;22584;-29
2022/11/04 07:55:55;;;;;;;7.60;3.90;;;;;;;;;;108244;1261;22550;-29
2022/11/04 07:58:30;;;;;;;7.00;3.60;;;;;;;;;;108376;1266;22548;-29
2022/11/04 08:01:05;;;;;;;7.40;4.00;;;;;;;;;;108360;1268;22495;-30
2022/11/04 08:03:40;;;;;;;7.80;4.00;;;;;;;;;;108377;1262;22557;-30
2022/11/04 08:06:14;;;;;;;6.80;3.70;;;;;;;;;;108324;1268;22570;-30
2022/11/04 08:08:47;;;;;;;7.70;4.00;;;;;;;;;;108363;1263;22611;-30
2022/11/04 08:11:22;;;;;;;7.50;3.70;;;;;;;;;;108355;1262;22663;-29
2022/11/04 08:13:54;;;;;;;6.90;3.70;;;;;;;;;;108338;1262;23908;-29
2022/11/04 08:16:27;;;;;;;7.90;3.80;;;;;;;;;;108309;1267;22542;-29
2022/11/04 08:19:01;;;;;;;;;;;;;;;;;;108304;1262;24217;-29
2022/11/04 08:21:35;;;;;;;6.20;3.60;;;;;;;;;;108269;1271;22554;-28
2022/11/04 08:24:07;;;;;;;7.30;3.70;;;;;;;;;;108271;1269;25276;-29
2022/11/04 08:26:39;;;;;;;7.00;3.70;;;;;;;;;;108300;1265;24190;-30
2022/11/04 08:29:11;;;;;;;6.30;3.60;;;;;;;;;;108340;1268;22550;-30
2022/11/04 08:31:44;;;;;;;7.90;3.70;;;;;;;;;;108365;1268;22510;-28
2022/11/04 08:34:17;;;;;;;;;;;;;;;;;;108402;1268;22530;-29
2022/11/04 08:36:51;;;;;;;6.90;3.70;;;;;;;;;;108334;1268;23554;-29
2022/11/04 08:39:24;;;;;;;7.30;3.60;;;;;;;;;;108246;1269;22605;-30
2022/11/04 08:41:55;;;;;;;;;;;;;;;;;;108295;1269;22492;-29
2022/11/04 08:44:29;;;;;;;6.90;3.60;;;;;;;;;;108273;1269;22562;-29
2022/11/04 08:47:03;;;;;;;6.70;3.60;;;;;;;;;;108278;1268;25388;-30
2022/11/04 08:49:39;;;;;;;7.00;3.70;;;;;;;;;;108386;1268;24187;-29
2022/11/04 08:52:12;;;;;;;6.80;3.80;;;;;;;;;;108405;1268;22560;-30
2022/11/04 08:54:44;;;;;;;6.30;3.50;;;;;;;;;;108348;1268;22665;-29
2022/11/04 08:57:16;;;;;;;6.60;3.50;;;;;;;;;;108303;1268;23047;-30
2022/11/04 08:59:51;;;;;;;7.10;3.70;;;;;;;;;;108293;1271;22557;-29
2022/11/04 09:02:23;;;;;;;6.80;3.30;;;;;;;;;;108303;1266;22730;-30
2022/11/04 09:04:55;;;;;;;5.80;3.60;;;;;;;;;;108287;1265;22524;-29
2022/11/04 09:07:28;;;;;;;5.80;3.50;;;;;;;;;;108251;1261;22527;-29
2022/11/04 09:10:03;;;;;;;6.30;3.40;;;;;;;;;;108367;1268;22513;-30
2022/11/04 09:12:35;;;;;;;5.70;3.60;;;;;;;;;;108408;1268;22505;-30
2022/11/04 09:15:11;;;;;;;6.00;3.70;;;;;;;;;;108356;1268;22513;-29
2022/11/04 09:17:43;;;;;;;5.80;3.50;;;;;;;;;;108315;1269;22574;-30
2022/11/04 09:20:15;;;;;;;6.90;3.60;;;;;;;;;;108279;1271;23955;-30
2022/11/04 09:22:49;;;;;;;6.30;3.50;;;;;;;;;;108276;1271;25251;-31
2022/11/04 09:25:24;;;;;;;6.30;3.50;;;;;;;;;;108287;1266;22545;-30
2022/11/04 09:27:56;;;;;;;7.00;3.70;;;;;;;;;;108260;1269;22547;-29
2022/11/04 09:30:29;;;;;;;5.80;3.30;;;;;;;;;;108145;1268;319695;-30
2022/11/04 09:33:01;;;;;;;6.50;3.60;;;;;;;;;;108405;1268;23714;-30
2022/11/04 09:35:34;;;;;;;6.30;3.60;;;;;;;;;;108355;1268;22546;-29
2022/11/04 09:38:06;;;;;;;7.40;3.70;;;;;;;;;;108306;1261;22556;-29
2022/11/04 09:40:39;;;;;;;6.00;3.10;;;;;;;;;;108263;1267;22550;-30
2022/11/04 09:43:20;;;;;;;;;;;;;;;;;;108274;1262;22534;-29
2022/11/04 09:45:53;;;;;;;6.20;3.70;;;;;;;;;;108246;1271;22579;-30
2022/11/04 09:48:31;;;;;;;6.00;3.60;;;;;;;;;;108274;1269;22550;-29
2022/11/04 09:51:10;;;;;;;6.40;3.70;;;;;;;;;;108331;1268;22550;-28
2022/11/04 09:53:48;;;;;;;6.20;3.60;;;;;;;;;;108371;1268;22634;-29
2022/11/04 09:56:25;;;;;;;5.80;3.30;;;;;;;;;;108425;1268;22666;-29
2022/11/04 09:58:58;;;;;;;5.20;3.60;;;;;;;;;;108286;1268;24009;-29
2022/11/04 10:01:40;;;;;;;6.70;3.60;;;;;;;;;;108245;1265;22546;-29
2022/11/04 10:04:30;;;;;;;5.40;3.40;;;;;;;;;;108280;1271;25256;-30
2022/11/04 10:07:20;;;;;;;5.80;3.10;;;;;;;;;;108176;1271;22529;-30
2022/11/04 10:10:06;;;;;;;5.90;3.30;;;;;;;;;;108243;1269;22774;-29
2022/11/04 10:13:00;;;;;;;6.50;3.70;;;;;;;;;;108300;1271;23857;-29
2022/11/04 10:16:04;;;;;;;6.00;3.60;;;;;;;;;;108304;1271;22560;-29
2022/11/04 10:19:14;;;;;;;6.00;3.50;;;;;;;;;;108173;1269;22556;-29
2022/11/04 10:22:02;;;;;;;5.90;3.60;;;;;;;;;;108104;1271;22536;-29
2022/11/04 10:24:46;;;;;;;5.70;3.40;;;;;;;;;;108238;1269;22576;-28
2022/11/04 10:27:26;;;;;;;6.50;3.60;;;;;;;;;;108217;1264;22587;-29
2022/11/04 10:30:03;;;;;;;6.40;4.00;;;;;;;;;;108213;1261;22589;-29
2022/11/04 10:32:51;;;;;;;6.60;3.40;;;;;;;;;;108295;1269;22568;-29
2022/11/04 10:35:37;;;;;;;6.20;3.80;;;;;;;;;;108353;1268;22719;-29
2022/11/04 10:38:24;;;;;;;5.60;3.40;;;;;;;;;;108387;1268;22604;-29
2022/11/04 10:40:58;;;;;;;7.00;3.30;;;;;;;;;;108243;1269;25938;-29
2022/11/04 10:43:36;;;;;;;5.60;3.50;;;;;;;;;;108242;1269;22563;-29
2022/11/04 10:46:26;;;;;;;5.60;3.50;;;;;;;;;;108274;1271;22557;-30
2022/11/04 10:49:33;;;;;;;5.80;3.40;;;;;;;;;;108201;1269;22549;-30
2022/11/04 10:52:16;;;;;;;6.60;3.30;;;;;;;;;;108114;1269;22542;-30
2022/11/04 10:54:49;;;;;;;;;;;;;;;;;;108322;1268;22872;-30
2022/11/04 10:57:27;;;;;;;6.50;3.40;;;;;;;;;;108154;1271;22537;-30
2022/11/04 11:00:01;;;;;;;6.20;3.50;;;;;;;;;;108129;1268;22577;-30
2022/11/04 11:02:50;;;;;;;6.60;3.50;;;;;;;;;;108302;1262;22535;-30
2022/11/04 11:05:28;;;;;;;5.70;3.40;;;;;;;;;;108275;1271;22526;-30
2022/11/04 11:08:03;;;;;;;5.60;3.50;;;;;;;;;;108234;1269;22561;-30
2022/11/04 11:10:58;;;;;;;6.00;3.70;;;;;;;;;;107961;1274;23924;-30
2022/11/04 11:13:50;;;;;;;6.30;3.50;;;;;;;;;;107927;1277;22556;-30
2022/11/04 11:16:49;;;;;;;5.40;3.40;;;;;;;;;;107466;1282;22558;-30
2022/11/04 11:19:52;;;;;;;5.40;3.50;;;;;;;;;;107077;1285;22584;-30
2022/11/04 11:22:47;;;;;;;5.10;3.00;;;;;;;;;;106926;1289;22566;-31
2022/11/04 11:28:38;;;;;;;5.90;3.60;;;;;;;;;;105156;1304;549199;-29
2022/11/04 11:31:39;;;;;;;6.30;3.30;;;;;;;;;;107634;1281;22564;-29
2022/11/04 11:34:37;;;;;;;5.70;3.40;;;;;;;;;;107002;1286;22595;-28
2022/11/04 11:37:30;;;;;;;5.50;3.30;;;;;;;;;;106811;1288;22655;-29
2022/11/04 11:40:33;;;;;;;;;;;;;;;;;;106406;1292;23137;-29
2022/11/04 11:43:35;;;;;;;6.20;3.50;;;;;;;;;;106019;1296;22747;-29
2022/11/04 11:46:34;;;;;;;6.20;3.70;;;;;;;;;;105772;1298;25542;-30
2022/11/04 11:50:10;;;;;;;5.80;3.40;;;;;;;;;;105756;1297;25357;-28
2022/11/04 11:56:19;;;;;;;5.60;3.20;;;;;;;;;;104935;1306;548568;-28
2022/11/04 11:59:23;;;;;;;5.80;3.50;;;;;;;;;;107775;1281;23848;-28
2022/11/04 12:02:31;;;;;;;5.10;3.00;;;;;;;;;;107767;1282;22562;-29
2022/11/04 12:05:47;;;;;;;6.40;3.60;;;;;;;;;;107351;1283;22594;-30
2022/11/04 12:08:58;;;;;;;5.50;3.50;;;;;;;;;;107344;1278;219868;-30
2022/11/04 12:11:43;;;;;;;5.50;3.60;;;;;;;;;;108202;1268;22750;-31
2022/11/04 12:14:22;;;;;;;5.80;3.40;;;;;;;;;;108362;1269;22544;-31
2022/11/04 12:17:07;;;;;;;5.90;3.20;;;;;;;;;;108325;1266;22620;-30
2022/11/04 12:20:02;;;;;;;6.30;3.70;;;;;;;;;;108332;1270;22550;-30
2022/11/04 12:23:06;;;;;;;5.30;3.20;;;;;;;;;;107922;1276;22574;-31
2022/11/04 12:26:15;;;;;;;5.20;3.10;;;;;;;;;;107825;1280;22611;-30
2022/11/04 12:29:30;;;;;;;6.60;3.70;;;;;;;;;;107313;1284;22575;-29
2022/11/04 12:32:41;;;;;;;5.40;3.30;;;;;;;;;;107043;1287;22590;-30
2022/11/04 12:35:30;;;;;;;5.10;3.40;;;;;;;;;;107863;1275;22613;-29
2022/11/04 12:38:27;;;;;;;5.90;3.30;;;;;;;;;;108305;1269;23818;-30
2022/11/04 12:41:14;;;;;;;5.50;3.10;;;;;;;;;;108275;1272;22541;-29
2022/11/04 12:43:57;;;;;;;6.30;3.40;;;;;;;;;;108339;1269;22547;-29
2022/11/04 12:46:39;;;;;;;5.70;3.30;;;;;;;;;;108323;1269;22550;-30
2022/11/04 12:49:41;;;;;;;5.70;3.20;;;;;;;;;;108315;1269;22569;-30
2022/11/04 12:52:35;;;;;;;5.50;3.40;;;;;;;;;;108464;1269;22647;-30
2022/11/04 12:55:27;;;;;;;5.70;3.40;;;;;;;;;;108312;1269;22546;-30
2022/11/04 12:58:10;;;;;;;6.20;3.50;;;;;;;;;;108293;1269;22553;-29
2022/11/04 13:00:46;;;;;;;5.20;3.40;;;;;;;;;;108195;1271;25383;-29
2022/11/04 13:03:30;;;;;;;5.60;3.30;;;;;;;;;;108265;1272;22491;-29
2022/11/04 13:06:14;;;;;;;5.20;3.30;;;;;;;;;;108423;1270;22549;-30
2022/11/04 13:08:52;;;;;;;5.10;2.90;;;;;;;;;;108236;1271;22580;-30
2022/11/04 13:11:30;;;;;;;5.10;2.90;;;;;;;;;;108259;1263;23478;-30
2022/11/04 13:14:08;;;;;;;5.00;3.10;;;;;;;;;;108348;1271;22605;-30
2022/11/04 13:16:46;;;;;;;5.30;3.20;;;;;;;;;;108658;1266;23834;-30
2022/11/04 13:19:30;;;;;;;5.50;3.10;;;;;;;;;;108691;1265;22551;-30
2022/11/04 13:22:10;;;;;;;5.30;3.20;;;;;;;;;;108665;1266;22565;-30
2022/11/04 13:24:50;;;;;;;5.80;3.00;;;;;;;;;;108642;1266;22589;-30
2022/11/04 13:27:27;;;;;;;5.20;3.00;;;;;;;;;;108680;1266;22540;-29
2022/11/04 13:30:21;;;;;;;5.30;3.00;;;;;;;;;;108706;1264;22531;-29
2022/11/04 13:33:00;;;;;;;5.80;3.20;;;;;;;;;;108653;1269;22892;-30
2022/11/04 13:35:41;;;;;;;5.00;3.10;;;;;;;;;;108810;1264;22549;-29
2022/11/04 13:38:17;;;;;;;5.50;3.10;;;;;;;;;;108733;1266;22547;-28
2022/11/04 13:41:01;;;;;;;5.10;3.20;;;;;;;;;;108664;1272;22630;-29
2022/11/04 13:43:45;;;;;;;5.20;3.00;;;;;;;;;;108645;1263;23709;-29
2022/11/04 13:46:29;;;;;;;5.90;3.10;;;;;;;;;;108610;1259;26036;-29
2022/11/04 13:49:08;;;;;;;5.00;3.00;;;;;;;;;;108571;1270;22534;-30
2022/11/04 13:51:45;;;;;;;5.20;3.20;;;;;;;;;;108759;1267;22674;-30
2022/11/04 13:54:31;;;;;;;5.70;3.60;;;;;;;;;;108769;1269;22550;-29
2022/11/04 13:57:14;;;;;;;5.60;3.30;;;;;;;;;;108688;1266;24035;-29
2022/11/04 14:00:27;;;;;;;5.70;3.20;;;;;;;;;;108625;1266;22667;-29
2022/11/04 14:03:01;;;;;;;5.10;3.20;;;;;;;;;;108504;1272;24320;-29
2022/11/04 14:06:07;;;;;;;6.20;3.50;;;;;;;;;;108598;1259;22553;-30
2022/11/04 14:09:39;;;;;;;5.00;3.00;;;;;;;;;;108948;1263;22536;-30
2022/11/04 14:12:38;;;;;;;5.00;3.30;;;;;;;;;;108903;1262;22593;-29
2022/11/04 14:16:00;;;;;;;5.20;3.00;;;;;;;;;;108921;1261;22537;-30
2022/11/04 14:18:35;;;;;;;5.90;3.50;;;;;;;;;;108925;1263;23137;-29
2022/11/04 14:21:11;;;;;;;5.80;3.30;;;;;;;;;;108871;1261;22559;-30
2022/11/04 14:23:47;;;;;;;5.40;3.50;;;;;;;;;;108698;1265;22565;-30
2022/11/04 14:26:22;;;;;;;5.20;3.60;;;;;;;;;;108866;1262;22530;-29
2022/11/04 14:29:13;;;;;;;5.50;3.30;;;;;;;;;;108783;1263;22564;-28
2022/11/04 14:31:49;;;;;;;5.50;3.50;;;;;;;;;;108846;1261;22585;-29
2022/11/04 14:34:33;;;;;;;5.50;3.30;;;;;;;;;;108914;1262;22593;-29
2022/11/04 14:37:15;;;;;;;5.30;3.60;;;;;;;;;;109020;1259;22534;-29
2022/11/04 14:39:56;;;;;;;5.20;3.10;;;;;;;;;;108987;1266;22540;-29
2022/11/04 14:42:51;;;;;;;5.60;3.60;;;;;;;;;;108842;1263;22545;-29
2022/11/04 14:45:29;;;;;;;5.10;3.40;;;;;;;;;;108867;1263;22615;-29
2022/11/04 14:48:15;;;;;;;5.30;3.20;;;;;;;;;;108910;1263;24280;-29
2022/11/04 14:50:56;;;;;;;5.50;3.50;;;;;;;;;;108800;1262;22514;-30
2022/11/04 14:53:33;;;;;;;5.00;3.30;;;;;;;;;;109001;1261;22718;-29
2022/11/04 14:56:20;;;;;;;5.30;3.20;;;;;;;;;;108984;1261;23868;-29
2022/11/04 14:58:59;;;;;;;6.10;3.50;;;;;;;;;;108814;1262;22566;-30
2022/11/04 15:01:35;;;;;;;5.90;3.50;;;;;;;;;;108942;1262;22541;-29
2022/11/04 15:04:20;;;;;;;6.20;3.70;;;;;;;;;;108925;1264;22605;-29
2022/11/04 15:07:05;;;;;;;4.80;3.00;;;;;;;;;;108883;1263;22524;-29
2022/11/04 15:09:48;;;;;;;4.90;3.20;;;;;;;;;;108884;1269;24320;-29
2022/11/04 15:15:32;;;;;;;5.20;3.20;;;;;;;;;;109014;1265;22547;-29
2022/11/04 15:18:09;;;;;;;5.40;3.40;;;;;;;;;;108994;1263;25266;-29
2022/11/04 15:20:54;;;;;;;5.40;3.30;;;;;;;;;;108917;1266;22538;-29
2022/11/04 15:23:33;;;;;;;6.20;3.70;;;;;;;;;;108816;1266;22541;-29
2022/11/04 15:26:07;;;;;;;5.20;3.30;;;;;;;;;;108870;1268;24300;-29
2022/11/04 15:28:47;;;;;;;5.80;3.30;;;;;;;;;;108758;1262;25492;-29
2022/11/04 15:31:22;;;;;;;5.80;3.70;;;;;;;;;;108954;1267;22577;-29
2022/11/04 15:33:56;;;;;;;5.40;3.60;;;;;;;;;;109091;1261;22549;-29
2022/11/04 15:36:33;;;;;;;5.40;3.60;;;;;;;;;;108989;1260;22489;-30
2022/11/04 15:39:12;;;;;;;6.10;3.80;;;;;;;;;;108944;1266;22525;-30
2022/11/04 15:44:38;;;;;;;5.20;3.20;;;;;;;;;;108874;1259;22569;-30
2022/11/04 15:50:24;;;;;;;5.60;3.70;;;;;;;;;;104961;1305;548512;-29
2022/11/04 15:52:58;;;;;;;6.10;3.30;;;;;;;;;;108380;1267;22600;-29
2022/11/04 15:55:33;;;;;;;6.20;3.70;;;;;;;;;;108456;1268;25297;-30
2022/11/04 15:58:10;;;;;;;5.70;3.80;;;;;;;;;;108401;1268;22547;-29
2022/11/04 16:00:45;;;;;;;5.20;3.20;;;;;;;;;;108324;1266;22546;-29
2022/11/04 16:03:23;;;;;;;6.00;3.80;;;;;;;;;;108292;1265;216780;-30
2022/11/04 16:06:11;;;;;;;5.60;3.70;;;;;;;;;;108591;1265;22785;-30
2022/11/04 16:09:01;;;;;;;5.80;3.70;;;;;;;;;;108473;1259;25939;-30
2022/11/04 16:11:37;;;;;;;5.50;3.50;;;;;;;;;;108705;1266;23994;-29
2022/11/04 16:14:29;;;;;;;6.10;3.50;;;;;;;;;;108587;1266;22566;-29
2022/11/04 16:17:02;;;;;;;6.90;3.70;;;;;;;;;;108579;1266;22640;-30
2022/11/04 16:19:34;;;;;;;5.60;3.30;;;;;;;;;;108547;1259;22625;-30
2022/11/04 16:22:09;;;;;;;5.50;3.50;;;;;;;;;;108557;1264;22547;-29
2022/11/04 16:24:43;;;;;;;6.10;3.40;;;;;;;;;;108484;1262;22566;-30
2022/11/04 16:27:20;;;;;;;5.70;3.40;;;;;;;;;;108605;1265;23958;-30
2022/11/04 16:30:09;;;;;;;5.60;3.30;;;;;;;;;;108562;1265;23847;-29
2022/11/04 16:32:46;;;;;;;5.70;3.50;;;;;;;;;;108612;1266;22586;-30